Terminal Aerodrome Forecast
Issued by NWS Charleston, WV

Current Version | Previous Version | Text Only | Print | Product List | Glossary Off
Versions: 1 2 3 4 5 6 7 8 9 10 11 12 13 14 15 16 17 18 19 20 21 22 23 24 25 26 27 28 29 30 31

000
FTUS41 KRLX 220500
TAFCRW
TAF
KCRW 220534Z 2206/2306 00000KT 6SM BR SCT100
     FM220800 00000KT 2SM BR SCT001
      TEMPO 2209/2212 3/4SM BR BKN001
     FM221200 VRB03KT 4SM HZ FEW002
     FM221300 VRB03KT 6SM HZ SCT250
     FM221600 18004KT P6SM SCT045
     FM222200 17004KT 6SM HZ SCT050=

USA.gov is the U.S. government's official web portal to all federal, state and local government web resources and services.